Time;durP1;ratioP1;P1;durP2;ratioP2;P2;SDS_P1;SDS_P2;PMS_P1;PMS_P2;Temp;Humidity;BMP_temperature;BMP_pressure;BME280_temperature;BME280_humidity;BME280_pressure;Samples;Min_cycle;Max_cycle;Signal;HPM_P1;HPM_P2
2024/02/24 00:00:50;;;;;;;;;;;4.00;99.90;;;-146.41;100.00;57768.22;5035596;28;2614;-68
2024/02/24 00:03:18;;;;;;;;;;;4.00;99.90;;;-146.41;100.00;57768.22;5033384;28;1218;-67
2024/02/24 00:05:48;;;;;;;;;;;4.00;99.90;;;-146.41;100.00;57768.22;5034801;28;1235;-68
2024/02/24 00:08:15;;;;;;;;;;;4.00;99.90;;;-146.41;100.00;57768.22;5034622;28;1195;-67
2024/02/24 00:10:42;;;;;;;;;;;4.00;99.90;;;-146.41;100.00;57768.22;5035272;28;1288;-65
2024/02/24 00:13:09;;;;;;;;;;;4.00;99.90;;;-146.41;100.00;57768.22;5033585;28;3120;-67
2024/02/24 00:15:36;;;;;;;;;;;4.00;99.90;;;-146.41;100.00;57768.22;5038779;28;1618;-68
2024/02/24 00:18:04;;;;;;;;;;;4.10;99.90;;;-146.41;100.00;57768.22;5039838;28;1983;-67
2024/02/24 00:20:31;;;;;;;;;;;4.10;99.90;;;-146.41;100.00;57768.22;5039846;28;1363;-68
2024/02/24 00:22:58;;;;;;;;;;;4.10;99.90;;;-146.41;100.00;57768.22;5037684;28;1907;-67
2024/02/24 00:25:25;;;;;;;;;;;4.10;99.90;;;-146.41;100.00;57768.22;5035353;28;1420;-68
2024/02/24 00:27:51;;;;;;;;;;;4.10;99.90;;;-146.41;100.00;57768.22;5038325;28;2594;-68
2024/02/24 00:30:18;;;;;;;;;;;4.20;99.90;;;-146.41;100.00;57768.22;5038903;28;1413;-68
2024/02/24 00:32:45;;;;;;;;;;;4.20;99.90;;;-146.41;100.00;57768.22;5037877;28;1434;-67
2024/02/24 00:35:12;;;;;;;;;;;4.20;99.90;;;-146.41;100.00;57768.22;5039457;28;1437;-68
2024/02/24 00:37:39;;;;;;;;;;;4.20;99.90;;;-146.41;100.00;57768.22;5040700;28;1931;-68
2024/02/24 00:40:07;;;;;;;;;;;4.20;99.90;;;-146.41;100.00;57768.22;5032286;28;1962;-68
2024/02/24 00:42:34;;;;;;;;;;;4.20;99.90;;;-146.41;100.00;57768.22;5037995;28;2501;-68
2024/02/24 00:45:00;;;;;;;;;;;4.20;99.90;;;-146.41;100.00;57768.22;5038492;28;2809;-67
2024/02/24 00:47:27;;;;;;;;;;;4.20;99.90;;;-146.41;100.00;57768.22;5040664;28;1403;-68
2024/02/24 00:49:54;;;;;;;;;;;4.20;99.90;;;-146.41;100.00;57768.22;5042555;28;1288;-68
2024/02/24 00:52:21;;;;;;;;;;;4.10;99.90;;;-146.41;100.00;57768.22;5042091;28;1448;-68
2024/02/24 00:54:48;;;;;;;;;;;4.20;99.90;;;-146.41;100.00;57768.22;5042115;28;1771;-69
2024/02/24 00:57:14;;;;;;;;;;;4.20;99.90;;;-146.41;100.00;57768.22;5041377;28;2913;-67
2024/02/24 00:59:41;;;;;;;;;;;4.20;99.90;;;-146.41;100.00;57768.22;5041987;28;1772;-68
2024/02/24 01:02:09;;;;;;;;;;;4.20;99.90;;;-146.41;100.00;57768.22;5037968;28;1483;-68
2024/02/24 01:04:36;;;;;;;;;;;4.20;99.90;;;-146.41;100.00;57768.22;5038463;28;1448;-68
2024/02/24 01:07:03;;;;;;;;;;;4.20;99.90;;;-146.41;100.00;57768.22;5041369;28;1333;-67
2024/02/24 01:09:30;;;;;;;;;;;4.20;99.90;;;-146.41;100.00;57768.22;5039367;28;1344;-68
2024/02/24 01:11:57;;;;;;;;;;;4.20;99.90;;;-146.41;100.00;57768.22;5037709;28;2148;-68
2024/02/24 01:14:24;;;;;;;;;;;4.30;99.90;;;-146.41;100.00;57768.22;5039988;28;1529;-68
2024/02/24 01:16:51;;;;;;;;;;;4.30;99.90;;;-146.41;100.00;57768.22;5053402;28;2611;-67
2024/02/24 01:19:17;;;;;;;;;;;4.20;99.90;;;-146.41;100.00;57768.22;5041022;28;2562;-67
2024/02/24 01:21:44;;;;;;;;;;;4.30;99.90;;;-146.41;100.00;57768.22;5034584;28;1642;-67
2024/02/24 01:24:14;;;;;;;;;;;4.20;99.90;;;-146.41;100.00;57768.22;5039672;28;1407;-67
2024/02/24 01:26:40;;;;;;;;;;;4.20;99.90;;;-146.41;100.00;57768.22;5037159;28;1294;-67
2024/02/24 01:29:07;;;;;;;;;;;4.20;99.90;;;-146.41;100.00;57768.22;5038988;28;1313;-66
2024/02/24 01:31:34;;;;;;;;;;;4.30;99.90;;;-146.41;100.00;57768.22;5038100;28;1455;-67
2024/02/24 01:34:01;;;;;;;;;;;4.30;99.90;;;-146.41;100.00;57768.22;5037501;28;1988;-67
2024/02/24 01:36:28;;;;;;;;;;;4.30;99.90;;;-146.41;100.00;57768.22;5043852;28;1983;-68
2024/02/24 01:38:55;;;;;;;;;;;4.20;99.90;;;-146.41;100.00;57768.22;5036289;28;1289;-67
2024/02/24 01:41:22;;;;;;;;;;;4.30;99.90;;;-146.41;100.00;57768.22;5038424;28;1332;-67
2024/02/24 01:43:48;;;;;;;;;;;4.20;99.90;;;-146.41;100.00;57768.22;5041025;28;1341;-67
2024/02/24 01:46:32;;;;;;;;;;;4.30;99.90;;;-146.41;100.00;57768.22;5039377;28;3024;-68
2024/02/24 01:48:59;;;;;;;;;;;4.30;99.90;;;-146.41;100.00;57768.22;5036252;28;1832;-68
2024/02/24 01:51:26;;;;;;;;;;;4.20;99.90;;;-146.41;100.00;57768.22;5038819;28;1363;-67
2024/02/24 01:53:54;;;;;;;;;;;4.10;99.90;;;-146.41;100.00;57768.22;5037504;28;1318;-68
2024/02/24 01:56:22;;;;;;;;;;;4.10;99.90;;;-146.41;100.00;57768.22;5039544;28;1699;-66
2024/02/24 01:58:48;;;;;;;;;;;4.00;99.90;;;-146.41;100.00;57768.22;5042511;28;1973;-68
2024/02/24 02:01:17;;;;;;;;;;;4.00;99.90;;;-146.41;100.00;57768.22;5044660;28;2419;-68
2024/02/24 02:03:43;;;;;;;;;;;3.90;99.90;;;-146.41;100.00;57768.22;5038930;28;1278;-67
2024/02/24 02:06:11;;;;;;;;;;;3.80;99.90;;;-146.41;100.00;57768.22;5044655;28;1512;-67
2024/02/24 02:08:38;;;;;;;;;;;3.80;99.90;;;-146.41;100.00;57768.22;5042211;28;1349;-67
2024/02/24 02:11:09;;;;;;;;;;;3.80;99.90;;;-146.41;100.00;57768.22;5044349;28;1434;-66
2024/02/24 02:13:36;;;;;;;;;;;3.80;99.90;;;-146.41;100.00;57768.22;5039970;28;1451;-67
2024/02/24 02:16:03;;;;;;;;;;;3.80;99.90;;;-146.41;100.00;57768.22;5040929;28;2110;-67
2024/02/24 02:18:30;;;;;;;;;;;3.80;99.90;;;-146.41;100.00;57768.22;5046440;28;1895;-67
2024/02/24 02:21:01;;;;;;;;;;;3.80;99.90;;;-146.41;100.00;57768.22;5040656;28;1291;-66
2024/02/24 02:23:28;;;;;;;;;;;3.80;99.90;;;-146.41;100.00;57768.22;5045751;28;1264;-66
2024/02/24 02:25:56;;;;;;;;;;;3.70;99.90;;;-146.41;100.00;57768.22;5040084;28;1364;-66
2024/02/24 02:28:23;;;;;;;;;;;3.80;99.90;;;-146.41;100.00;57768.22;5037971;28;3137;-67
2024/02/24 02:30:51;;;;;;;;;;;3.80;99.90;;;-146.41;100.00;57768.22;5037982;28;1288;-66
2024/02/24 02:33:17;;;;;;;;;;;3.80;99.90;;;-146.41;100.00;57768.22;5042019;28;1015;-67
2024/02/24 02:35:45;;;;;;;;;;;3.80;99.90;;;-146.41;100.00;57768.22;5041622;28;1085;-68
2024/02/24 02:38:12;;;;;;;;;;;3.90;99.90;;;-146.41;100.00;57768.22;5042226;28;1902;-67
2024/02/24 02:40:38;;;;;;;;;;;3.90;99.90;;;-146.41;100.00;57768.22;5038258;28;1296;-66
2024/02/24 02:43:05;;;;;;;;;;;3.80;99.90;;;-146.41;100.00;57768.22;5038186;28;2328;-67
2024/02/24 02:45:32;;;;;;;;;;;3.80;99.90;;;-146.41;100.00;57768.22;5044436;28;1363;-67
2024/02/24 02:47:59;;;;;;;;;;;3.90;99.90;;;-146.41;100.00;57768.22;5039489;28;1076;-67
2024/02/24 02:50:26;;;;;;;;;;;3.80;99.90;;;-146.41;100.00;57768.22;5037735;28;1285;-67
2024/02/24 02:52:53;;;;;;;;;;;3.90;99.90;;;-146.41;100.00;57768.22;5041454;28;2058;-67
2024/02/24 02:55:20;;;;;;;;;;;3.80;99.90;;;-146.41;100.00;57768.22;5041980;28;1082;-67
2024/02/24 02:57:48;;;;;;;;;;;3.80;99.90;;;-146.41;100.00;57768.22;5037460;28;2198;-67
2024/02/24 03:00:16;;;;;;;;;;;3.80;99.90;;;-146.41;100.00;57768.22;5041732;28;1952;-67
2024/02/24 03:02:42;;;;;;;;;;;3.80;99.90;;;-146.41;100.00;57768.22;5054625;28;1187;-67
2024/02/24 03:05:09;;;;;;;;;;;3.70;99.90;;;-146.41;100.00;57768.22;5039949;28;1084;-67
2024/02/24 03:07:36;;;;;;;;;;;3.70;99.90;;;-146.41;100.00;57768.22;5038180;28;1073;-67
2024/02/24 03:10:04;;;;;;;;;;;3.60;99.90;;;-146.41;100.00;57768.22;5039942;28;1296;-66
2024/02/24 03:12:31;;;;;;;;;;;3.60;99.90;;;-146.41;100.00;57768.22;5042044;28;3429;-67
2024/02/24 03:14:59;;;;;;;;;;;3.60;99.90;;;-146.41;100.00;57768.22;5041320;28;1090;-66
2024/02/24 03:17:26;;;;;;;;;;;3.60;99.90;;;-146.41;100.00;57768.22;5041066;28;2642;-67
2024/02/24 03:19:53;;;;;;;;;;;3.60;99.90;;;-146.41;100.00;57768.22;5039636;28;1153;-67
2024/02/24 03:22:19;;;;;;;;;;;3.50;99.90;;;-146.41;100.00;57768.22;5042095;28;1447;-67
2024/02/24 03:24:46;;;;;;;;;;;3.50;99.90;;;-146.41;100.00;57768.22;5039644;28;1069;-66
2024/02/24 03:27:13;;;;;;;;;;;3.50;99.90;;;-146.41;100.00;57768.22;5038373;28;1391;-67
2024/02/24 03:29:40;;;;;;;;;;;3.40;99.90;;;-146.41;100.00;57768.22;5039876;28;1018;-67
2024/02/24 03:32:07;;;;;;;;;;;3.50;99.90;;;-146.41;100.00;57768.22;5040470;28;2063;-67
2024/02/24 03:34:34;;;;;;;;;;;3.40;99.90;;;-146.41;100.00;57768.22;5040073;28;1014;-67
2024/02/24 03:37:01;;;;;;;;;;;3.40;99.90;;;-146.41;100.00;57768.22;5038156;28;1991;-67
2024/02/24 03:39:27;;;;;;;;;;;3.50;99.90;;;-146.41;100.00;57768.22;5041412;28;1131;-67
2024/02/24 03:41:54;;;;;;;;;;;3.50;99.90;;;-146.41;100.00;57768.22;5056680;28;1516;-68
2024/02/24 03:44:21;;;;;;;;;;;3.50;99.90;;;-146.41;100.00;57768.22;5039934;28;1027;-67
2024/02/24 03:46:48;;;;;;;;;;;3.50;99.90;;;-146.41;100.00;57768.22;5040279;28;2162;-67
2024/02/24 03:49:15;;;;;;;;;;;3.60;99.90;;;-146.41;100.00;57768.22;5037447;28;1057;-67
2024/02/24 03:51:42;;;;;;;;;;;3.60;99.90;;;-146.41;100.00;57768.22;5037518;28;1360;-67
2024/02/24 03:54:10;;;;;;;;;;;3.50;99.90;;;-146.41;100.00;57768.22;5038674;28;1329;-67
2024/02/24 03:56:37;;;;;;;;;;;3.60;99.90;;;-146.41;100.00;57768.22;5038339;28;1413;-67
2024/02/24 03:59:04;;;;;;;;;;;3.70;99.90;;;-146.41;100.00;57768.22;5038655;28;1935;-67
2024/02/24 04:01:31;;;;;;;;;;;3.70;99.90;;;-146.41;100.00;57768.22;5041801;28;3316;-67
2024/02/24 04:03:58;;;;;;;;;;;3.70;99.90;;;-146.41;100.00;57768.22;5043925;28;1066;-68
2024/02/24 04:06:25;;;;;;;;;;;3.70;99.90;;;-146.41;100.00;57768.22;5040208;28;1109;-67
2024/02/24 04:08:52;;;;;;;;;;;3.70;99.90;;;-146.41;100.00;57768.22;5053455;28;1425;-68
2024/02/24 04:11:19;;;;;;;;;;;3.70;99.90;;;-146.41;100.00;57768.22;5038711;28;1431;-66
2024/02/24 04:13:46;;;;;;;;;;;3.70;99.90;;;-146.41;100.00;57768.22;5038619;28;2340;-67
2024/02/24 04:16:13;;;;;;;;;;;3.70;99.90;;;-146.41;100.00;57768.22;5041108;28;1102;-67
2024/02/24 04:18:40;;;;;;;;;;;3.70;99.90;;;-146.41;100.00;57768.22;5037999;28;2001;-67
2024/02/24 04:21:07;;;;;;;;;;;3.70;99.90;;;-146.41;100.00;57768.22;5039535;28;1379;-68
2024/02/24 04:23:33;;;;;;;;;;;3.80;99.90;;;-146.41;100.00;57768.22;5037218;28;1412;-67
2024/02/24 04:26:00;;;;;;;;;;;3.70;99.90;;;-146.41;100.00;57768.22;5037081;28;1061;-68
2024/02/24 04:28:27;;;;;;;;;;;3.80;99.90;;;-146.41;100.00;57768.22;5038082;28;1066;-68
2024/02/24 04:30:54;;;;;;;;;;;3.80;99.90;;;-146.41;100.00;57768.22;5045242;28;1328;-68
2024/02/24 04:33:21;;;;;;;;;;;3.80;99.90;;;-146.41;100.00;57768.22;5051118;28;958;-68
2024/02/24 04:35:48;;;;;;;;;;;3.80;99.90;;;-146.41;100.00;57768.22;5037107;28;1061;-68
2024/02/24 04:38:15;;;;;;;;;;;3.80;99.90;;;-146.41;100.00;57768.22;5038967;28;3207;-67
2024/02/24 04:40:42;;;;;;;;;;;3.80;99.90;;;-146.41;100.00;57768.22;5039842;28;1712;-67
2024/02/24 04:43:09;;;;;;;;;;;3.80;99.90;;;-146.41;100.00;57768.22;5038343;28;2462;-68
2024/02/24 04:45:36;;;;;;;;;;;3.80;99.90;;;-146.41;100.00;57768.22;5037539;28;1089;-67
2024/02/24 04:48:03;;;;;;;;;;;3.80;99.90;;;-146.41;100.00;57768.22;5037911;28;1125;-67
2024/02/24 04:50:30;;;;;;;;;;;3.80;99.90;;;-146.41;100.00;57768.22;5038905;28;1288;-67
2024/02/24 04:52:57;;;;;;;;;;;3.80;99.90;;;-146.41;100.00;57768.22;5034382;28;1458;-67
2024/02/24 04:55:24;;;;;;;;;;;3.90;99.90;;;-146.41;100.00;57768.22;5041927;28;1050;-67
2024/02/24 04:57:51;;;;;;;;;;;3.90;99.90;;;-146.41;100.00;57768.22;5041201;28;2126;-67
2024/02/24 05:00:18;;;;;;;;;;;3.90;99.90;;;-146.41;100.00;57768.22;5044138;28;1259;-67
2024/02/24 05:02:45;;;;;;;;;;;3.90;99.90;;;-146.41;100.00;57768.22;5031427;28;1246;-67
2024/02/24 05:05:12;;;;;;;;;;;3.90;99.90;;;-146.41;100.00;57768.22;5037534;28;1050;-67
2024/02/24 05:07:39;;;;;;;;;;;3.90;99.90;;;-146.41;100.00;57768.22;5041224;28;1400;-67
2024/02/24 05:10:07;;;;;;;;;;;3.90;99.90;;;-146.41;100.00;57768.22;5042202;28;2737;-68
2024/02/24 05:12:35;;;;;;;;;;;4.00;99.90;;;-146.41;100.00;57768.22;5040262;28;1123;-67
2024/02/24 05:15:02;;;;;;;;;;;4.00;99.90;;;-146.41;100.00;57768.22;5039740;28;2653;-68
2024/02/24 05:17:29;;;;;;;;;;;4.00;99.90;;;-146.41;100.00;57768.22;5039238;28;3805;-67
2024/02/24 05:19:56;;;;;;;;;;;4.00;99.90;;;-146.41;100.00;57768.22;5039037;28;2560;-67
2024/02/24 05:22:23;;;;;;;;;;;4.00;99.90;;;-146.41;100.00;57768.22;5039473;28;1501;-67
2024/02/24 05:24:49;;;;;;;;;;;4.00;99.90;;;-146.41;100.00;57768.22;5042041;28;1094;-67
2024/02/24 05:27:16;;;;;;;;;;;4.00;99.90;;;-146.41;100.00;57768.22;5036992;28;1074;-67
2024/02/24 05:29:46;;;;;;;;;;;4.00;99.90;;;-146.41;100.00;57768.22;5034170;28;1160;-68
2024/02/24 05:32:16;;;;;;;;;;;4.00;99.90;;;-146.41;100.00;57768.22;5041952;28;1980;-68
2024/02/24 05:34:43;;;;;;;;;;;4.00;99.90;;;-146.41;100.00;57768.22;5052619;28;1340;-67
2024/02/24 05:37:11;;;;;;;;;;;3.90;99.90;;;-146.41;100.00;57768.22;5038085;28;1380;-67
2024/02/24 05:39:38;;;;;;;;;;;4.00;99.90;;;-146.41;100.00;57768.22;5037048;28;1910;-68
2024/02/24 05:42:08;;;;;;;;;;;4.00;99.90;;;-146.41;100.00;57768.22;5035087;28;1390;-67
2024/02/24 05:44:34;;;;;;;;;;;4.00;99.90;;;-146.41;100.00;57768.22;5034919;28;1084;-68
2024/02/24 05:47:01;;;;;;;;;;;4.10;99.90;;;-146.41;100.00;57768.22;5035690;28;2502;-67
2024/02/24 05:49:28;;;;;;;;;;;4.00;99.90;;;-146.41;100.00;57768.22;5038216;28;1404;-67
2024/02/24 05:51:55;;;;;;;;;;;4.00;99.90;;;-146.41;100.00;57768.22;5038984;28;1393;-67
2024/02/24 05:54:22;;;;;;;;;;;4.00;99.90;;;-146.41;100.00;57768.22;5038433;28;1173;-67
2024/02/24 05:56:49;;;;;;;;;;;4.00;99.90;;;-146.41;100.00;57768.22;5038530;28;1300;-67
2024/02/24 05:59:17;;;;;;;;;;;4.00;99.90;;;-146.41;100.00;57768.22;5040396;28;1989;-68
2024/02/24 06:01:44;;;;;;;;;;;4.10;99.90;;;-146.41;100.00;57768.22;5038806;28;3120;-67
2024/02/24 06:04:12;;;;;;;;;;;4.00;99.90;;;-146.41;100.00;57768.22;5035930;28;1229;-67
2024/02/24 06:06:38;;;;;;;;;;;3.90;99.90;;;-146.41;100.00;57768.22;5037482;28;1053;-67
2024/02/24 06:09:06;;;;;;;;;;;3.90;99.90;;;-146.41;100.00;57768.22;5038932;28;1087;-67
2024/02/24 06:11:33;;;;;;;;;;;3.90;99.90;;;-146.41;100.00;57768.22;5038650;28;1269;-67
2024/02/24 06:13:59;;;;;;;;;;;3.90;99.90;;;-146.41;100.00;57768.22;5036410;28;1344;-68
2024/02/24 06:16:26;;;;;;;;;;;3.90;99.90;;;-146.41;100.00;57768.22;5037791;28;2432;-68
2024/02/24 06:18:53;;;;;;;;;;;3.90;99.90;;;-146.41;100.00;57768.22;5037873;28;1898;-68
2024/02/24 06:21:20;;;;;;;;;;;3.90;99.90;;;-146.41;100.00;57768.22;5036478;28;2613;-67
2024/02/24 06:23:47;;;;;;;;;;;3.90;99.90;;;-146.41;100.00;57768.22;5041861;28;2023;-67
2024/02/24 06:26:14;;;;;;;;;;;3.80;99.90;;;-146.41;100.00;57768.22;5034239;28;1073;-67
2024/02/24 06:28:42;;;;;;;;;;;3.80;99.90;;;-146.41;100.00;57768.22;5036210;28;1448;-68
2024/02/24 06:31:09;;;;;;;;;;;3.80;99.90;;;-146.41;100.00;57768.22;5042720;28;1292;-68
2024/02/24 06:33:35;;;;;;;;;;;3.80;99.90;;;-146.41;100.00;57768.22;5035617;28;1972;-68
2024/02/24 06:36:02;;;;;;;;;;;3.90;99.90;;;-146.41;100.00;57768.22;5036562;28;2813;-68
2024/02/24 06:38:30;;;;;;;;;;;3.80;99.90;;;-146.41;100.00;57768.22;5036415;28;2435;-67
2024/02/24 06:40:57;;;;;;;;;;;3.80;99.90;;;-146.41;100.00;57768.22;5040083;28;1363;-67
2024/02/24 06:43:23;;;;;;;;;;;3.80;99.90;;;-146.41;100.00;57768.22;5041136;28;1064;-68
2024/02/24 06:45:50;;;;;;;;;;;3.70;99.90;;;-146.41;100.00;57768.22;5040591;28;1584;-67
2024/02/24 06:48:17;;;;;;;;;;;3.80;99.90;;;-146.41;100.00;57768.22;5043053;28;3152;-67
2024/02/24 06:50:44;;;;;;;;;;;3.70;99.90;;;-146.41;100.00;57768.22;5042495;28;1520;-66
2024/02/24 06:53:12;;;;;;;;;;;3.70;99.90;;;-146.41;100.00;57768.22;5042703;28;1944;-66
2024/02/24 06:55:39;;;;;;;;;;;3.70;99.90;;;-146.41;100.00;57768.22;5044868;28;1052;-66
2024/02/24 06:58:07;;;;;;;;;;;3.70;99.90;;;-146.41;100.00;57768.22;5044117;28;1985;-66
2024/02/24 07:00:35;;;;;;;;;;;3.50;99.90;;;-146.41;100.00;57768.22;5042645;28;2043;-66
2024/02/24 07:03:01;;;;;;;;;;;3.50;99.90;;;-146.41;100.00;57768.22;5039708;28;2083;-67
2024/02/24 07:05:31;;;;;;;;;;;3.50;99.90;;;-146.41;100.00;57768.22;5040078;28;1377;-67
2024/02/24 07:07:58;;;;;;;;;;;3.50;99.90;;;-146.41;100.00;57768.22;5041847;28;1061;-67
2024/02/24 07:10:25;;;;;;;;;;;3.40;99.90;;;-146.41;100.00;57768.22;5038788;28;1303;-66
2024/02/24 07:12:52;;;;;;;;;;;3.40;99.90;;;-146.41;100.00;57768.22;5041524;28;1146;-66
2024/02/24 07:15:19;;;;;;;;;;;3.40;99.90;;;-146.41;100.00;57768.22;5040692;28;2241;-66
2024/02/24 07:17:46;;;;;;;;;;;3.40;99.90;;;-146.41;100.00;57768.22;5042482;28;2610;-65
2024/02/24 07:20:13;;;;;;;;;;;3.40;99.90;;;-146.41;100.00;57768.22;5046588;28;1981;-66
2024/02/24 07:22:41;;;;;;;;;;;3.30;99.90;;;-146.41;100.00;57768.22;5039711;28;1018;-66
2024/02/24 07:25:08;;;;;;;;;;;3.20;99.90;;;-146.41;100.00;57768.22;5038754;28;1126;-66
2024/02/24 07:27:35;;;;;;;;;;;3.20;99.90;;;-146.41;100.00;57768.22;5040154;28;1076;-65
2024/02/24 07:30:02;;;;;;;;;;;3.20;99.90;;;-146.41;100.00;57768.22;5041015;28;1304;-66
2024/02/24 07:32:29;;;;;;;;;;;3.10;99.90;;;-146.41;100.00;57768.22;5039068;28;2927;-67
2024/02/24 07:34:56;;;;;;;;;;;3.10;99.90;;;-146.41;100.00;57768.22;5039797;28;1324;-67
2024/02/24 07:37:22;;;;;;;;;;;3.10;99.90;;;-146.41;100.00;57768.22;5041089;28;1115;-67
2024/02/24 07:39:49;;;;;;;;;;;3.20;99.90;;;-146.41;100.00;57768.22;5041861;28;1909;-67
2024/02/24 07:42:16;;;;;;;;;;;3.20;99.90;;;-146.41;100.00;57768.22;5039552;28;1476;-67
2024/02/24 07:44:43;;;;;;;;;;;3.10;99.90;;;-146.41;100.00;57768.22;5039977;28;2487;-66
2024/02/24 07:47:10;;;;;;;;;;;3.20;99.90;;;-146.41;100.00;57768.22;5040428;28;1249;-67
2024/02/24 07:49:37;;;;;;;;;;;3.20;99.90;;;-146.41;100.00;57768.22;5039839;28;1666;-67
2024/02/24 07:52:04;;;;;;;;;;;3.30;99.90;;;-146.41;100.00;57768.22;5041229;28;1344;-67
2024/02/24 07:54:31;;;;;;;;;;;3.20;99.90;;;-146.41;100.00;57768.22;5037140;28;1076;-66
2024/02/24 07:56:58;;;;;;;;;;;3.20;99.90;;;-146.41;100.00;57768.22;5039844;28;1105;-66
2024/02/24 07:59:25;;;;;;;;;;;3.30;99.90;;;-146.41;100.00;57768.22;5040092;28;1951;-66
2024/02/24 08:01:52;;;;;;;;;;;3.20;99.90;;;-146.41;100.00;57768.22;5040727;28;1346;-65
2024/02/24 08:04:20;;;;;;;;;;;3.20;99.90;;;-146.41;100.00;57768.22;5041534;28;1364;-67
2024/02/24 08:06:47;;;;;;;;;;;3.20;99.90;;;-146.41;100.00;57768.22;5040350;28;1081;-66
2024/02/24 08:09:14;;;;;;;;;;;3.30;99.90;;;-146.41;100.00;57768.22;5039597;28;1149;-67
2024/02/24 08:11:41;;;;;;;;;;;3.30;99.90;;;-146.41;100.00;57768.22;5038739;28;1375;-67
2024/02/24 08:14:08;;;;;;;;;;;3.40;99.90;;;-146.41;100.00;57768.22;5040239;28;2946;-67
2024/02/24 08:16:36;;;;;;;;;;;3.30;99.90;;;-146.41;100.00;57768.22;5038746;28;1117;-66
2024/02/24 08:19:03;;;;;;;;;;;3.40;99.90;;;-146.41;100.00;57768.22;5042336;28;1969;-66
2024/02/24 08:21:31;;;;;;;;;;;3.30;99.90;;;-146.41;100.00;57768.22;5039831;28;1791;-67
2024/02/24 08:23:58;;;;;;;;;;;3.30;99.90;;;-146.41;100.00;57768.22;5040603;28;1495;-67
2024/02/24 08:26:25;;;;;;;;;;;3.30;99.90;;;-146.41;100.00;57768.22;5038912;28;1105;-66
2024/02/24 08:28:52;;;;;;;;;;;3.50;99.90;;;-146.41;100.00;57768.22;5053626;28;1209;-66
2024/02/24 08:31:19;;;;;;;;;;;3.50;99.90;;;-146.41;100.00;57768.22;5040673;28;1308;-66
2024/02/24 08:33:45;;;;;;;;;;;3.50;99.90;;;-146.41;100.00;57768.22;5040268;28;1329;-66
2024/02/24 08:36:16;;;;;;;;;;;3.50;99.90;;;-146.41;100.00;57768.22;5040912;28;1058;-66
2024/02/24 08:38:43;;;;;;;;;;;3.60;99.90;;;-146.41;100.00;57768.22;5038097;28;2778;-67
2024/02/24 08:41:10;;;;;;;;;;;3.60;99.90;;;-146.41;100.00;57768.22;5039734;28;1434;-67
2024/02/24 08:43:37;;;;;;;;;;;3.60;99.90;;;-146.41;100.00;57768.22;5037652;28;1487;-67
2024/02/24 08:46:04;;;;;;;;;;;3.70;99.90;;;-146.41;100.00;57768.22;5040853;28;1451;-67
2024/02/24 08:48:32;;;;;;;;;;;3.80;99.90;;;-146.41;100.00;57768.22;5038560;28;1431;-67
2024/02/24 08:50:59;;;;;;;;;;;3.80;99.90;;;-146.41;100.00;57768.22;5043120;28;1370;-67
2024/02/24 08:53:26;;;;;;;;;;;3.90;99.90;;;-146.41;100.00;57768.22;5038932;28;3095;-67
2024/02/24 08:55:53;;;;;;;;;;;3.90;99.90;;;-146.41;100.00;57768.22;5041189;28;1117;-67
2024/02/24 08:58:20;;;;;;;;;;;3.90;99.90;;;-146.41;100.00;57768.22;5039384;28;1906;-67
2024/02/24 09:00:47;;;;;;;;;;;4.10;99.90;;;-146.41;100.00;57768.22;5040162;28;1352;-69
2024/02/24 09:03:16;;;;;;;;;;;4.10;99.90;;;-146.41;100.00;57768.22;5036908;28;1323;-66
2024/02/24 09:05:43;;;;;;;;;;;4.10;99.90;;;-146.41;100.00;57768.22;5041561;28;1476;-68
2024/02/24 09:08:09;;;;;;;;;;;4.10;99.90;;;-146.41;100.00;57768.22;5037663;28;2158;-69
2024/02/24 09:10:36;;;;;;;;;;;4.30;99.90;;;-146.41;100.00;57768.22;5039125;28;1375;-68
2024/02/24 09:13:03;;;;;;;;;;;4.30;99.90;;;-146.41;100.00;57768.22;5040744;28;1125;-68
2024/02/24 09:15:30;;;;;;;;;;;4.40;99.90;;;-146.41;100.00;57768.22;5038018;28;2715;-68
2024/02/24 09:17:58;;;;;;;;;;;4.20;99.90;;;-146.41;100.00;57768.22;5040610;28;2080;-68
2024/02/24 09:20:26;;;;;;;;;;;4.30;99.90;;;-146.41;100.00;57768.22;5037842;28;1906;-69
2024/02/24 09:22:53;;;;;;;;;;;4.30;99.90;;;-146.41;100.00;57768.22;5040280;28;1364;-68
2024/02/24 09:25:20;;;;;;;;;;;4.20;99.90;;;-146.41;100.00;57768.22;5037642;28;1142;-68
2024/02/24 09:27:48;;;;;;;;;;;4.20;99.90;;;-146.41;100.00;57768.22;5038265;28;1952;-67
2024/02/24 09:30:15;;;;;;;;;;;4.20;99.90;;;-146.41;100.00;57768.22;5036415;28;3339;-68
2024/02/24 09:32:42;;;;;;;;;;;4.20;99.90;;;-146.41;100.00;57768.22;5037970;28;1442;-67
2024/02/24 09:35:09;;;;;;;;;;;4.30;99.90;;;-146.41;100.00;57768.22;5039116;28;1317;-68
2024/02/24 09:37:36;;;;;;;;;;;4.40;99.90;;;-146.41;100.00;57768.22;5039765;28;1396;-68
2024/02/24 09:40:06;;;;;;;;;;;4.40;99.90;;;-146.41;100.00;57768.22;5039365;28;1917;-68
2024/02/24 09:42:33;;;;;;;;;;;4.60;99.90;;;-146.41;100.00;57768.22;5039810;28;3008;-68
2024/02/24 09:45:04;;;;;;;;;;;4.60;99.90;;;-146.41;100.00;57768.22;5038723;28;1307;-68
2024/02/24 09:47:31;;;;;;;;;;;4.80;99.90;;;-146.41;100.00;57768.22;5036519;28;1219;-68
2024/02/24 09:49:59;;;;;;;;;;;4.90;99.90;;;-146.41;100.00;57768.22;5035964;28;1501;-68
2024/02/24 09:52:28;;;;;;;;;;;4.90;99.90;;;-146.41;100.00;57768.22;5040364;28;1710;-68
2024/02/24 09:54:54;;;;;;;;;;;5.10;99.90;;;-146.41;100.00;57768.22;5039305;28;1061;-68
2024/02/24 09:57:25;;;;;;;;;;;5.20;99.90;;;-146.41;100.00;57768.22;5038923;28;2197;-66
2024/02/24 09:59:51;;;;;;;;;;;5.20;99.90;;;-146.41;100.00;57768.22;5039374;28;1981;-68
2024/02/24 10:02:18;;;;;;;;;;;5.20;99.90;;;-146.41;100.00;57768.22;5032135;28;1378;-68
2024/02/24 10:04:46;;;;;;;;;;;5.30;99.90;;;-146.41;100.00;57768.22;5034939;28;1362;-68
2024/02/24 10:07:13;;;;;;;;;;;5.30;99.90;;;-146.41;100.00;57768.22;5039910;28;1139;-68
2024/02/24 10:09:40;;;;;;;;;;;5.30;99.90;;;-146.41;100.00;57768.22;5043247;28;1427;-66
2024/02/24 10:12:07;;;;;;;;;;;5.40;99.90;;;-146.41;100.00;57768.22;5035688;28;1972;-67
2024/02/24 10:14:34;;;;;;;;;;;5.70;99.90;;;-146.41;100.00;57768.22;5038285;28;1242;-68
2024/02/24 10:17:02;;;;;;;;;;;5.80;99.90;;;-146.41;100.00;57768.22;5038589;28;1341;-65
2024/02/24 10:19:31;;;;;;;;;;;5.70;99.90;;;-146.41;100.00;57768.22;5042580;28;1983;-67
2024/02/24 10:22:01;;;;;;;;;;;5.60;99.90;;;-146.41;100.00;57768.22;5037744;28;1363;-66
2024/02/24 10:24:28;;;;;;;;;;;5.50;99.90;;;-146.41;100.00;57768.22;5041605;28;3510;-66
2024/02/24 10:26:57;;;;;;;;;;;5.50;99.90;;;-146.41;100.00;57768.22;5040371;28;2983;-67
2024/02/24 10:29:30;;;;;;;;;;;5.70;99.90;;;-146.41;100.00;57768.22;5041326;28;1078;-66
2024/02/24 10:31:58;;;;;;;;;;;5.60;99.90;;;-146.41;100.00;57768.22;5055664;28;1386;-68
2024/02/24 10:34:26;;;;;;;;;;;5.70;99.90;;;-146.41;100.00;57768.22;5040999;28;1436;-68
2024/02/24 10:36:57;;;;;;;;;;;5.80;99.90;;;-146.41;100.00;57768.22;5040996;28;1979;-68
2024/02/24 10:39:25;;;;;;;;;;;5.80;99.90;;;-146.41;100.00;57768.22;5040379;28;2454;-68
2024/02/24 10:41:53;;;;;;;;;;;5.60;99.90;;;-146.41;100.00;57768.22;5042319;28;2642;-66
2024/02/24 10:44:21;;;;;;;;;;;5.60;99.90;;;-146.41;100.00;57768.22;5038116;28;1365;-66
2024/02/24 10:46:49;;;;;;;;;;;5.50;99.90;;;-146.41;100.00;57768.22;5039778;28;1376;-68
2024/02/24 10:49:17;;;;;;;;;;;5.30;99.90;;;-146.41;100.00;57768.22;5040109;28;1434;-68
2024/02/24 10:51:48;;;;;;;;;;;5.30;99.90;;;-146.41;100.00;57768.22;5039680;28;1388;-67
2024/02/24 10:54:20;;;;;;;;;;;5.20;99.90;;;-146.41;100.00;57768.22;5054675;28;2067;-67
2024/02/24 10:56:53;;;;;;;;;;;5.30;99.90;;;-146.41;100.00;57768.22;5056276;28;1192;-67
2024/02/24 10:59:26;;;;;;;;;;;5.40;99.90;;;-146.41;100.00;57768.22;5042353;28;1902;-67
2024/02/24 11:01:59;;;;;;;;;;;5.40;99.90;;;-146.41;100.00;57768.22;5043062;28;1471;-66
2024/02/24 11:04:26;;;;;;;;;;;5.50;99.90;;;-146.41;100.00;57768.22;5056937;28;1352;-67
2024/02/24 11:06:55;;;;;;;;;;;5.40;99.90;;;-146.41;100.00;57768.22;5055731;28;1208;-68
2024/02/24 11:09:24;;;;;;;;;;;5.50;99.90;;;-146.41;100.00;57768.22;5038202;28;3162;-68